Overview Statistics Trail Chart Weather Telemetry Raw packets
 

This is the latest recevied weather packets stored in our database for station/object OE6PWE-13. If no packets are shown the sender has not sent any weather packets the latest 10 day(s).

<< 5 6 7 8 9 10 11 >>
Time Temp. Humidity Pressure Rain* Wind** Luminosity Snow
1788552912 19.44° C 90% 1014 hPa 0 mm - - -
1788552011 20° C 89% 1014 hPa 0 mm - - -
1788551112 20.56° C 88% 1014 hPa 0 mm - - -
1788550212 21.11° C 85% 1014 hPa 0 mm - - -
1788549311 21.67° C 83% 1014 hPa 0 mm - - -
1788548411 22.22° C 81% 1014 hPa 0 mm - - -
1788547511 22.78° C 77% 1014 hPa 0 mm - - -
1788546612 23.33° C 75% 1014 hPa 0 mm - - -
1788545712 23.89° C 72% 1014 hPa 0 mm - - -
1788544812 26.11° C 67% 1013 hPa 0 mm - - -
1788543911 26.67° C 59% 1013 hPa 0 mm - - -
1788543012 27.22° C 58% 1013 hPa 0 mm - - -
1788542111 28.89° C 56% 1013 hPa 0 mm - - -
1788541211 30° C 49% 1013 hPa 0 mm - - -
1788540311 30.56° C 45% 1013 hPa 0 mm - - -
1788539411 31.11° C 45% 1013 hPa 0 mm - - -
1788538511 31.11° C 45% 1013 hPa 0 mm - - -
1788537611 31.67° C 44% 1013 hPa 0 mm - - -
1788536711 31.67° C 43% 1013 hPa 0 mm - - -
1788535811 31.67° C 43% 1013 hPa 0 mm - - -
1788534912 32.22° C 42% 1013 hPa 0 mm - - -
1788534012 32.22° C 43% 1013 hPa 0 mm - - -
1788533112 32.22° C 41% 1013 hPa 0 mm - - -
1788532211 32.78° C 41% 1014 hPa 0 mm - - -
1788531311 32.78° C 42% 1014 hPa 0 mm - - -

* Rain latest hour (hover to see other rain measurements)
** Current wind speed in m/s (hover to see current wind gust speed)